sensor_id;sensor_type;location;lat;lon;timestamp;P1;durP1;ratioP1;P2;durP2;ratioP2
16189;SDS011;41754;51.498;7.540;2023-09-12T00:02:37;3.03;;;2.33;;
16189;SDS011;41754;51.498;7.540;2023-09-12T00:05:07;3.03;;;2.63;;
16189;SDS011;41754;51.498;7.540;2023-09-12T00:07:35;2.60;;;2.40;;
16189;SDS011;41754;51.498;7.540;2023-09-12T00:10:04;3.47;;;2.28;;
16189;SDS011;41754;51.498;7.540;2023-09-12T00:12:32;2.75;;;2.55;;
16189;SDS011;41754;51.498;7.540;2023-09-12T00:15:00;2.55;;;2.35;;
16189;SDS011;41754;51.498;7.540;2023-09-12T00:17:30;4.82;;;2.60;;
16189;SDS011;41754;51.498;7.540;2023-09-12T00:19:58;2.63;;;2.42;;
16189;SDS011;41754;51.498;7.540;2023-09-12T00:22:27;5.30;;;2.95;;
16189;SDS011;41754;51.498;7.540;2023-09-12T00:24:55;2.45;;;2.22;;
16189;SDS011;41754;51.498;7.540;2023-09-12T00:27:23;3.38;;;2.38;;
16189;SDS011;41754;51.498;7.540;2023-09-12T00:29:51;2.45;;;2.17;;
16189;SDS011;41754;51.498;7.540;2023-09-12T00:32:19;2.70;;;2.47;;
16189;SDS011;41754;51.498;7.540;2023-09-12T00:34:46;3.00;;;2.13;;
16189;SDS011;41754;51.498;7.540;2023-09-12T00:37:14;2.63;;;2.30;;
16189;SDS011;41754;51.498;7.540;2023-09-12T00:39:43;3.17;;;2.35;;
16189;SDS011;41754;51.498;7.540;2023-09-12T00:42:11;3.15;;;2.50;;
16189;SDS011;41754;51.498;7.540;2023-09-12T00:44:40;2.75;;;2.15;;
16189;SDS011;41754;51.498;7.540;2023-09-12T00:47:08;3.17;;;2.67;;
16189;SDS011;41754;51.498;7.540;2023-09-12T00:49:38;4.70;;;3.90;;
16189;SDS011;41754;51.498;7.540;2023-09-12T00:52:07;3.88;;;3.47;;
16189;SDS011;41754;51.498;7.540;2023-09-12T00:54:36;3.47;;;3.17;;
16189;SDS011;41754;51.498;7.540;2023-09-12T00:57:06;4.65;;;3.20;;
16189;SDS011;41754;51.498;7.540;2023-09-12T00:59:35;3.63;;;3.30;;
16189;SDS011;41754;51.498;7.540;2023-09-12T01:02:03;3.35;;;3.05;;
16189;SDS011;41754;51.498;7.540;2023-09-12T01:04:31;4.15;;;3.58;;
16189;SDS011;41754;51.498;7.540;2023-09-12T01:07:02;3.70;;;3.00;;
16189;SDS011;41754;51.498;7.540;2023-09-12T01:09:31;3.45;;;3.15;;
16189;SDS011;41754;51.498;7.540;2023-09-12T01:11:59;3.95;;;3.40;;
16189;SDS011;41754;51.498;7.540;2023-09-12T01:14:30;4.38;;;3.20;;
16189;SDS011;41754;51.498;7.540;2023-09-12T01:16:59;4.28;;;3.38;;
16189;SDS011;41754;51.498;7.540;2023-09-12T01:19:28;3.70;;;3.40;;
16189;SDS011;41754;51.498;7.540;2023-09-12T01:25:07;6.13;;;4.13;;
16189;SDS011;41754;51.498;7.540;2023-09-12T01:27:44;4.20;;;3.80;;
16189;SDS011;41754;51.498;7.540;2023-09-12T01:30:15;5.70;;;4.00;;
16189;SDS011;41754;51.498;7.540;2023-09-12T01:32:45;5.28;;;4.13;;
16189;SDS011;41754;51.498;7.540;2023-09-12T01:35:14;6.28;;;4.55;;
16189;SDS011;41754;51.498;7.540;2023-09-12T01:37:42;4.45;;;4.05;;
16189;SDS011;41754;51.498;7.540;2023-09-12T01:40:10;4.78;;;4.38;;
16189;SDS011;41754;51.498;7.540;2023-09-12T01:42:40;4.75;;;4.35;;
16189;SDS011;41754;51.498;7.540;2023-09-12T01:45:13;5.75;;;5.00;;
16189;SDS011;41754;51.498;7.540;2023-09-12T01:47:48;7.90;;;6.05;;
16189;SDS011;41754;51.498;7.540;2023-09-12T01:50:17;6.32;;;5.72;;
16189;SDS011;41754;51.498;7.540;2023-09-12T01:52:47;7.55;;;6.22;;
16189;SDS011;41754;51.498;7.540;2023-09-12T01:55:16;6.85;;;6.10;;
16189;SDS011;41754;51.498;7.540;2023-09-12T01:57:46;8.55;;;7.00;;
16189;SDS011;41754;51.498;7.540;2023-09-12T02:00:16;7.50;;;6.65;;
16189;SDS011;41754;51.498;7.540;2023-09-12T02:02:45;7.22;;;6.50;;
16189;SDS011;41754;51.498;7.540;2023-09-12T02:05:13;8.10;;;6.70;;
16189;SDS011;41754;51.498;7.540;2023-09-12T02:07:45;8.45;;;7.65;;
16189;SDS011;41754;51.498;7.540;2023-09-12T02:10:14;8.32;;;7.53;;
16189;SDS011;41754;51.498;7.540;2023-09-12T02:12:42;8.57;;;7.78;;
16189;SDS011;41754;51.498;7.540;2023-09-12T02:15:10;9.45;;;8.55;;
16189;SDS011;41754;51.498;7.540;2023-09-12T02:17:40;9.18;;;7.70;;
16189;SDS011;41754;51.498;7.540;2023-09-12T02:20:08;8.65;;;7.85;;
16189;SDS011;41754;51.498;7.540;2023-09-12T02:22:37;10.52;;;8.98;;
16189;SDS011;41754;51.498;7.540;2023-09-12T02:25:06;9.77;;;8.77;;
16189;SDS011;41754;51.498;7.540;2023-09-12T02:27:35;10.65;;;8.43;;
16189;SDS011;41754;51.498;7.540;2023-09-12T02:30:03;9.40;;;8.50;;
16189;SDS011;41754;51.498;7.540;2023-09-12T02:32:32;10.15;;;8.38;;
16189;SDS011;41754;51.498;7.540;2023-09-12T02:35:01;9.15;;;8.23;;
16189;SDS011;41754;51.498;7.540;2023-09-12T02:37:30;8.73;;;7.90;;
16189;SDS011;41754;51.498;7.540;2023-09-12T02:39:58;10.05;;;8.52;;
16189;SDS011;41754;51.498;7.540;2023-09-12T02:42:26;8.75;;;7.85;;
16189;SDS011;41754;51.498;7.540;2023-09-12T02:44:54;9.10;;;7.90;;
16189;SDS011;41754;51.498;7.540;2023-09-12T02:47:22;9.45;;;8.10;;
16189;SDS011;41754;51.498;7.540;2023-09-12T02:49:49;9.77;;;8.13;;
16189;SDS011;41754;51.498;7.540;2023-09-12T02:52:19;9.00;;;8.20;;
16189;SDS011;41754;51.498;7.540;2023-09-12T02:54:47;9.52;;;8.63;;
16189;SDS011;41754;51.498;7.540;2023-09-12T02:57:15;9.00;;;8.10;;
16189;SDS011;41754;51.498;7.540;2023-09-12T02:59:43;10.30;;;9.20;;
16189;SDS011;41754;51.498;7.540;2023-09-12T03:02:11;9.75;;;8.75;;
16189;SDS011;41754;51.498;7.540;2023-09-12T03:04:39;15.00;;;9.27;;
16189;SDS011;41754;51.498;7.540;2023-09-12T03:07:07;10.18;;;9.18;;
16189;SDS011;41754;51.498;7.540;2023-09-12T03:09:36;11.48;;;9.68;;
16189;SDS011;41754;51.498;7.540;2023-09-12T03:12:05;11.35;;;9.10;;
16189;SDS011;41754;51.498;7.540;2023-09-12T03:14:34;11.68;;;8.93;;
16189;SDS011;41754;51.498;7.540;2023-09-12T03:17:02;12.27;;;11.07;;
16189;SDS011;41754;51.498;7.540;2023-09-12T03:19:32;13.63;;;10.50;;
16189;SDS011;41754;51.498;7.540;2023-09-12T03:22:00;10.40;;;9.43;;
16189;SDS011;41754;51.498;7.540;2023-09-12T03:24:28;15.80;;;10.85;;
16189;SDS011;41754;51.498;7.540;2023-09-12T03:26:57;12.00;;;10.80;;
16189;SDS011;41754;51.498;7.540;2023-09-12T03:29:25;10.73;;;9.63;;
16189;SDS011;41754;51.498;7.540;2023-09-12T03:31:53;11.95;;;10.52;;
16189;SDS011;41754;51.498;7.540;2023-09-12T03:34:20;13.70;;;11.20;;
16189;SDS011;41754;51.498;7.540;2023-09-12T03:36:48;17.77;;;12.95;;
16189;SDS011;41754;51.498;7.540;2023-09-12T03:39:16;12.93;;;10.38;;
16189;SDS011;41754;51.498;7.540;2023-09-12T03:41:44;12.57;;;11.30;;
16189;SDS011;41754;51.498;7.540;2023-09-12T03:44:13;12.90;;;11.05;;
16189;SDS011;41754;51.498;7.540;2023-09-12T03:46:41;12.23;;;10.95;;
16189;SDS011;41754;51.498;7.540;2023-09-12T03:49:10;14.13;;;11.43;;
16189;SDS011;41754;51.498;7.540;2023-09-12T03:51:39;12.82;;;11.10;;
16189;SDS011;41754;51.498;7.540;2023-09-12T03:54:06;13.32;;;11.93;;
16189;SDS011;41754;51.498;7.540;2023-09-12T03:56:35;13.70;;;11.70;;
16189;SDS011;41754;51.498;7.540;2023-09-12T03:59:02;12.18;;;10.95;;
16189;SDS011;41754;51.498;7.540;2023-09-12T04:01:32;14.65;;;13.02;;
16189;SDS011;41754;51.498;7.540;2023-09-12T04:04:01;17.58;;;14.10;;
16189;SDS011;41754;51.498;7.540;2023-09-12T04:06:30;13.80;;;12.35;;
16189;SDS011;41754;51.498;7.540;2023-09-12T04:08:58;14.77;;;12.88;;
16189;SDS011;41754;51.498;7.540;2023-09-12T04:11:26;14.60;;;12.25;;
16189;SDS011;41754;51.498;7.540;2023-09-12T04:14:11;19.80;;;17.70;;
16189;SDS011;41754;51.498;7.540;2023-09-12T04:16:41;14.48;;;12.95;;
16189;SDS011;41754;51.498;7.540;2023-09-12T04:19:09;14.15;;;12.32;;
16189;SDS011;41754;51.498;7.540;2023-09-12T04:21:37;12.85;;;11.55;;
16189;SDS011;41754;51.498;7.540;2023-09-12T04:24:05;13.82;;;12.43;;
16189;SDS011;41754;51.498;7.540;2023-09-12T04:26:34;13.88;;;11.77;;
16189;SDS011;41754;51.498;7.540;2023-09-12T04:29:02;12.48;;;11.25;;
16189;SDS011;41754;51.498;7.540;2023-09-12T04:31:30;13.07;;;11.45;;
16189;SDS011;41754;51.498;7.540;2023-09-12T04:33:59;12.32;;;11.02;;
16189;SDS011;41754;51.498;7.540;2023-09-12T04:36:27;12.02;;;10.93;;
16189;SDS011;41754;51.498;7.540;2023-09-12T04:38:55;12.13;;;10.82;;
16189;SDS011;41754;51.498;7.540;2023-09-12T04:41:23;10.85;;;9.85;;
16189;SDS011;41754;51.498;7.540;2023-09-12T04:43:51;11.27;;;9.85;;
16189;SDS011;41754;51.498;7.540;2023-09-12T04:46:19;11.63;;;10.43;;
16189;SDS011;41754;51.498;7.540;2023-09-12T04:48:47;11.25;;;10.02;;
16189;SDS011;41754;51.498;7.540;2023-09-12T04:51:16;11.70;;;9.73;;
16189;SDS011;41754;51.498;7.540;2023-09-12T04:53:44;13.23;;;11.40;;
16189;SDS011;41754;51.498;7.540;2023-09-12T04:56:14;10.90;;;9.80;;
16189;SDS011;41754;51.498;7.540;2023-09-12T04:58:42;11.95;;;10.68;;
16189;SDS011;41754;51.498;7.540;2023-09-12T05:01:10;12.25;;;10.82;;
16189;SDS011;41754;51.498;7.540;2023-09-12T05:03:38;12.10;;;10.63;;
16189;SDS011;41754;51.498;7.540;2023-09-12T05:06:06;11.65;;;10.63;;
16189;SDS011;41754;51.498;7.540;2023-09-12T05:08:36;16.50;;;12.85;;
16189;SDS011;41754;51.498;7.540;2023-09-12T05:11:04;14.73;;;12.98;;
16189;SDS011;41754;51.498;7.540;2023-09-12T05:13:32;14.98;;;13.48;;
16189;SDS011;41754;51.498;7.540;2023-09-12T05:16:00;15.98;;;14.23;;
16189;SDS011;41754;51.498;7.540;2023-09-12T05:18:28;15.30;;;13.75;;
16189;SDS011;41754;51.498;7.540;2023-09-12T05:20:56;17.10;;;14.52;;
16189;SDS011;41754;51.498;7.540;2023-09-12T05:23:24;17.70;;;15.90;;
16189;SDS011;41754;51.498;7.540;2023-09-12T05:25:54;15.52;;;13.93;;
16189;SDS011;41754;51.498;7.540;2023-09-12T05:28:21;15.40;;;13.77;;
16189;SDS011;41754;51.498;7.540;2023-09-12T05:30:50;13.25;;;11.90;;
16189;SDS011;41754;51.498;7.540;2023-09-12T05:33:18;13.55;;;12.23;;
16189;SDS011;41754;51.498;7.540;2023-09-12T05:35:47;12.10;;;10.90;;
16189;SDS011;41754;51.498;7.540;2023-09-12T05:38:15;11.48;;;10.25;;
16189;SDS011;41754;51.498;7.540;2023-09-12T05:40:43;11.40;;;10.30;;
16189;SDS011;41754;51.498;7.540;2023-09-12T05:43:12;12.05;;;10.95;;
16189;SDS011;41754;51.498;7.540;2023-09-12T05:45:40;10.57;;;9.57;;
16189;SDS011;41754;51.498;7.540;2023-09-12T05:48:08;10.07;;;9.07;;
16189;SDS011;41754;51.498;7.540;2023-09-12T05:50:37;9.60;;;8.70;;
16189;SDS011;41754;51.498;7.540;2023-09-12T05:53:05;9.48;;;8.25;;
16189;SDS011;41754;51.498;7.540;2023-09-12T05:55:33;9.30;;;8.38;;
16189;SDS011;41754;51.498;7.540;2023-09-12T05:58:00;9.00;;;8.10;;
16189;SDS011;41754;51.498;7.540;2023-09-12T06:00:34;8.23;;;7.38;;
16189;SDS011;41754;51.498;7.540;2023-09-12T06:03:02;8.88;;;7.97;;
16189;SDS011;41754;51.498;7.540;2023-09-12T06:05:31;14.52;;;8.40;;
16189;SDS011;41754;51.498;7.540;2023-09-12T06:07:59;11.45;;;9.48;;
16189;SDS011;41754;51.498;7.540;2023-09-12T06:10:27;11.77;;;9.18;;
16189;SDS011;41754;51.498;7.540;2023-09-12T06:12:55;14.98;;;9.10;;
16189;SDS011;41754;51.498;7.540;2023-09-12T06:15:23;11.07;;;9.85;;
16189;SDS011;41754;51.498;7.540;2023-09-12T06:17:52;11.80;;;10.32;;
16189;SDS011;41754;51.498;7.540;2023-09-12T06:20:20;11.75;;;10.52;;
16189;SDS011;41754;51.498;7.540;2023-09-12T06:22:49;10.23;;;9.18;;
16189;SDS011;41754;51.498;7.540;2023-09-12T06:25:17;12.77;;;10.30;;
16189;SDS011;41754;51.498;7.540;2023-09-12T06:27:45;12.05;;;10.25;;
16189;SDS011;41754;51.498;7.540;2023-09-12T06:30:13;11.63;;;10.43;;
16189;SDS011;41754;51.498;7.540;2023-09-12T06:32:41;14.27;;;11.23;;
16189;SDS011;41754;51.498;7.540;2023-09-12T06:35:10;14.20;;;11.20;;
16189;SDS011;41754;51.498;7.540;2023-09-12T06:37:38;18.05;;;12.85;;
16189;SDS011;41754;51.498;7.540;2023-09-12T06:40:07;16.00;;;12.85;;
16189;SDS011;41754;51.498;7.540;2023-09-12T06:42:35;16.65;;;12.73;;
16189;SDS011;41754;51.498;7.540;2023-09-12T06:45:03;12.63;;;11.32;;
16189;SDS011;41754;51.498;7.540;2023-09-12T06:47:31;13.90;;;11.30;;
16189;SDS011;41754;51.498;7.540;2023-09-12T06:49:59;11.82;;;10.63;;
16189;SDS011;41754;51.498;7.540;2023-09-12T06:52:29;15.02;;;11.52;;
16189;SDS011;41754;51.498;7.540;2023-09-12T06:54:57;13.43;;;12.02;;
16189;SDS011;41754;51.498;7.540;2023-09-12T06:57:25;14.45;;;11.63;;
16189;SDS011;41754;51.498;7.540;2023-09-12T06:59:52;13.55;;;11.57;;
16189;SDS011;41754;51.498;7.540;2023-09-12T07:02:20;17.67;;;13.52;;
16189;SDS011;41754;51.498;7.540;2023-09-12T07:04:48;16.08;;;13.90;;
16189;SDS011;41754;51.498;7.540;2023-09-12T07:07:16;16.38;;;14.43;;
16189;SDS011;41754;51.498;7.540;2023-09-12T07:09:47;14.48;;;13.07;;
16189;SDS011;41754;51.498;7.540;2023-09-12T07:12:15;16.40;;;13.63;;
16189;SDS011;41754;51.498;7.540;2023-09-12T07:14:43;17.98;;;14.73;;
16189;SDS011;41754;51.498;7.540;2023-09-12T07:17:10;17.92;;;15.40;;
16189;SDS011;41754;51.498;7.540;2023-09-12T07:19:38;21.65;;;17.88;;
16189;SDS011;41754;51.498;7.540;2023-09-12T07:22:08;30.27;;;21.23;;
16189;SDS011;41754;51.498;7.540;2023-09-12T07:24:36;30.23;;;22.50;;
16189;SDS011;41754;51.498;7.540;2023-09-12T07:27:06;22.00;;;19.67;;
16189;SDS011;41754;51.498;7.540;2023-09-12T07:29:33;23.95;;;21.45;;
16189;SDS011;41754;51.498;7.540;2023-09-12T07:32:01;25.80;;;18.58;;
16189;SDS011;41754;51.498;7.540;2023-09-12T07:34:29;25.73;;;21.20;;
16189;SDS011;41754;51.498;7.540;2023-09-12T07:36:57;24.75;;;20.85;;
16189;SDS011;41754;51.498;7.540;2023-09-12T07:39:25;25.05;;;21.02;;
16189;SDS011;41754;51.498;7.540;2023-09-12T07:41:53;22.88;;;20.58;;
16189;SDS011;41754;51.498;7.540;2023-09-12T07:44:22;22.60;;;20.30;;
16189;SDS011;41754;51.498;7.540;2023-09-12T07:46:50;23.73;;;21.33;;
16189;SDS011;41754;51.498;7.540;2023-09-12T07:49:18;24.83;;;22.30;;
16189;SDS011;41754;51.498;7.540;2023-09-12T07:51:45;27.20;;;24.25;;
16189;SDS011;41754;51.498;7.540;2023-09-12T07:54:13;19.92;;;17.67;;
16189;SDS011;41754;51.498;7.540;2023-09-12T07:56:41;26.60;;;23.83;;
16189;SDS011;41754;51.498;7.540;2023-09-12T07:59:09;26.65;;;24.08;;
16189;SDS011;41754;51.498;7.540;2023-09-12T08:01:40;20.83;;;18.75;;
16189;SDS011;41754;51.498;7.540;2023-09-12T08:04:08;19.05;;;17.15;;
16189;SDS011;41754;51.498;7.540;2023-09-12T08:06:36;22.85;;;20.23;;
16189;SDS011;41754;51.498;7.540;2023-09-12T08:09:23;20.95;;;18.85;;
16189;SDS011;41754;51.498;7.540;2023-09-12T08:11:51;21.77;;;19.48;;
16189;SDS011;41754;51.498;7.540;2023-09-12T08:14:18;20.58;;;18.65;;
16189;SDS011;41754;51.498;7.540;2023-09-12T08:16:49;20.42;;;18.45;;
16189;SDS011;41754;51.498;7.540;2023-09-12T08:19:17;19.42;;;17.40;;
16189;SDS011;41754;51.498;7.540;2023-09-12T08:21:45;21.45;;;19.25;;
16189;SDS011;41754;51.498;7.540;2023-09-12T08:24:13;23.08;;;20.77;;
16189;SDS011;41754;51.498;7.540;2023-09-12T08:26:41;21.17;;;18.88;;
16189;SDS011;41754;51.498;7.540;2023-09-12T08:29:09;19.90;;;17.98;;
16189;SDS011;41754;51.498;7.540;2023-09-12T08:31:36;20.13;;;18.15;;
16189;SDS011;41754;51.498;7.540;2023-09-12T08:34:06;21.10;;;18.92;;
16189;SDS011;41754;51.498;7.540;2023-09-12T08:36:34;19.25;;;17.25;;
16189;SDS011;41754;51.498;7.540;2023-09-12T08:39:02;17.80;;;16.20;;
16189;SDS011;41754;51.498;7.540;2023-09-12T08:41:31;18.27;;;16.45;;
16189;SDS011;41754;51.498;7.540;2023-09-12T08:44:00;18.02;;;16.33;;
16189;SDS011;41754;51.498;7.540;2023-09-12T08:46:29;17.80;;;16.10;;
16189;SDS011;41754;51.498;7.540;2023-09-12T08:48:57;17.33;;;15.63;;
16189;SDS011;41754;51.498;7.540;2023-09-12T08:51:27;15.00;;;13.50;;
16189;SDS011;41754;51.498;7.540;2023-09-12T08:53:55;18.52;;;16.70;;
16189;SDS011;41754;51.498;7.540;2023-09-12T08:56:23;17.75;;;16.15;;
16189;SDS011;41754;51.498;7.540;2023-09-12T08:58:52;17.08;;;15.27;;
16189;SDS011;41754;51.498;7.540;2023-09-12T09:01:21;17.90;;;16.02;;
16189;SDS011;41754;51.498;7.540;2023-09-12T09:03:49;16.73;;;15.02;;
16189;SDS011;41754;51.498;7.540;2023-09-12T09:06:17;16.90;;;15.20;;
16189;SDS011;41754;51.498;7.540;2023-09-12T09:08:48;17.25;;;15.32;;
16189;SDS011;41754;51.498;7.540;2023-09-12T09:11:17;14.63;;;13.23;;
16189;SDS011;41754;51.498;7.540;2023-09-12T09:13:45;14.68;;;13.18;;
16189;SDS011;41754;51.498;7.540;2023-09-12T09:16:15;13.30;;;12.00;;
16189;SDS011;41754;51.498;7.540;2023-09-12T09:18:55;11.75;;;10.55;;
16189;SDS011;41754;51.498;7.540;2023-09-12T09:21:24;11.85;;;10.27;;
16189;SDS011;41754;51.498;7.540;2023-09-12T09:23:55;12.82;;;11.60;;
16189;SDS011;41754;51.498;7.540;2023-09-12T09:26:23;11.95;;;10.75;;
16189;SDS011;41754;51.498;7.540;2023-09-12T09:29:05;11.65;;;10.48;;
16189;SDS011;41754;51.498;7.540;2023-09-12T09:31:35;11.73;;;10.50;;
16189;SDS011;41754;51.498;7.540;2023-09-12T09:34:04;11.35;;;10.18;;
16189;SDS011;41754;51.498;7.540;2023-09-12T09:36:41;9.43;;;8.63;;
16189;SDS011;41754;51.498;7.540;2023-09-12T09:39:11;9.98;;;8.48;;
16189;SDS011;41754;51.498;7.540;2023-09-12T09:41:40;8.43;;;7.72;;
16189;SDS011;41754;51.498;7.540;2023-09-12T09:44:08;8.63;;;7.85;;
16189;SDS011;41754;51.498;7.540;2023-09-12T09:46:36;8.82;;;8.02;;
16189;SDS011;41754;51.498;7.540;2023-09-12T09:49:04;8.40;;;7.70;;
16189;SDS011;41754;51.498;7.540;2023-09-12T09:51:33;8.10;;;7.30;;
16189;SDS011;41754;51.498;7.540;2023-09-12T09:54:09;6.95;;;6.35;;
16189;SDS011;41754;51.498;7.540;2023-09-12T09:56:45;7.20;;;6.38;;
16189;SDS011;41754;51.498;7.540;2023-09-12T09:59:14;6.03;;;5.53;;
16189;SDS011;41754;51.498;7.540;2023-09-12T10:01:43;6.07;;;5.45;;
16189;SDS011;41754;51.498;7.540;2023-09-12T10:04:12;8.25;;;5.45;;
16189;SDS011;41754;51.498;7.540;2023-09-12T10:06:41;5.97;;;5.28;;
16189;SDS011;41754;51.498;7.540;2023-09-12T10:09:12;6.22;;;5.18;;
16189;SDS011;41754;51.498;7.540;2023-09-12T10:11:42;5.32;;;4.15;;
16189;SDS011;41754;51.498;7.540;2023-09-12T10:14:13;3.72;;;3.42;;
16189;SDS011;41754;51.498;7.540;2023-09-12T10:16:46;3.95;;;3.58;;
16189;SDS011;41754;51.498;7.540;2023-09-12T10:19:16;4.57;;;3.88;;
16189;SDS011;41754;51.498;7.540;2023-09-12T10:21:46;4.00;;;3.65;;
16189;SDS011;41754;51.498;7.540;2023-09-12T10:24:17;3.80;;;3.50;;
16189;SDS011;41754;51.498;7.540;2023-09-12T10:26:48;4.47;;;4.10;;
16189;SDS011;41754;51.498;7.540;2023-09-12T10:29:19;6.68;;;5.97;;
16189;SDS011;41754;51.498;7.540;2023-09-12T10:31:47;5.53;;;5.03;;
16189;SDS011;41754;51.498;7.540;2023-09-12T10:34:16;6.55;;;5.95;;
16189;SDS011;41754;51.498;7.540;2023-09-12T10:36:44;5.43;;;4.95;;
16189;SDS011;41754;51.498;7.540;2023-09-12T10:39:14;5.22;;;4.80;;
16189;SDS011;41754;51.498;7.540;2023-09-12T10:41:42;4.85;;;4.45;;
16189;SDS011;41754;51.498;7.540;2023-09-12T10:44:12;4.75;;;4.30;;
16189;SDS011;41754;51.498;7.540;2023-09-12T10:46:45;4.55;;;4.18;;
16189;SDS011;41754;51.498;7.540;2023-09-12T10:49:14;4.88;;;4.30;;
16189;SDS011;41754;51.498;7.540;2023-09-12T10:51:44;4.35;;;3.97;;
16189;SDS011;41754;51.498;7.540;2023-09-12T10:54:13;7.10;;;4.00;;
16189;SDS011;41754;51.498;7.540;2023-09-12T10:56:42;3.75;;;3.30;;
16189;SDS011;41754;51.498;7.540;2023-09-12T10:59:12;4.07;;;3.72;;
16189;SDS011;41754;51.498;7.540;2023-09-12T11:01:41;3.63;;;3.33;;
16189;SDS011;41754;51.498;7.540;2023-09-12T11:04:32;4.40;;;3.45;;
16189;SDS011;41754;51.498;7.540;2023-09-12T11:07:01;4.88;;;3.88;;
16189;SDS011;41754;51.498;7.540;2023-09-12T11:09:28;3.35;;;3.15;;
16189;SDS011;41754;51.498;7.540;2023-09-12T11:11:58;3.08;;;2.88;;
16189;SDS011;41754;51.498;7.540;2023-09-12T11:14:29;4.28;;;3.35;;
16189;SDS011;41754;51.498;7.540;2023-09-12T11:19:50;2.92;;;2.60;;
16189;SDS011;41754;51.498;7.540;2023-09-12T11:22:27;2.95;;;2.40;;
16189;SDS011;41754;51.498;7.540;2023-09-12T11:24:57;2.20;;;2.10;;
16189;SDS011;41754;51.498;7.540;2023-09-12T11:27:30;2.38;;;2.20;;
16189;SDS011;41754;51.498;7.540;2023-09-12T11:30:03;1.88;;;1.77;;
16189;SDS011;41754;51.498;7.540;2023-09-12T11:32:32;2.03;;;1.92;;
16189;SDS011;41754;51.498;7.540;2023-09-12T11:35:05;3.75;;;1.90;;
16189;SDS011;41754;51.498;7.540;2023-09-12T11:37:34;2.03;;;1.92;;
16189;SDS011;41754;51.498;7.540;2023-09-12T11:40:14;2.08;;;1.98;;
16189;SDS011;41754;51.498;7.540;2023-09-12T11:42:44;2.53;;;2.33;;
16189;SDS011;41754;51.498;7.540;2023-09-12T11:45:13;2.30;;;2.10;;
16189;SDS011;41754;51.498;7.540;2023-09-12T11:47:41;3.85;;;2.35;;
16189;SDS011;41754;51.498;7.540;2023-09-12T11:53:04;5.88;;;2.38;;
16189;SDS011;41754;51.498;7.540;2023-09-12T11:55:33;2.78;;;2.58;;
16189;SDS011;41754;51.498;7.540;2023-09-12T11:58:03;2.15;;;1.92;;
16189;SDS011;41754;51.498;7.540;2023-09-12T12:00:31;2.45;;;2.17;;
16189;SDS011;41754;51.498;7.540;2023-09-12T12:03:00;2.75;;;2.55;;
16189;SDS011;41754;51.498;7.540;2023-09-12T12:05:27;3.17;;;2.72;;
16189;SDS011;41754;51.498;7.540;2023-09-12T12:07:56;3.25;;;2.97;;
16189;SDS011;41754;51.498;7.540;2023-09-12T12:10:50;10.50;;;3.58;;
16189;SDS011;41754;51.498;7.540;2023-09-12T12:13:18;3.40;;;2.33;;
16189;SDS011;41754;51.498;7.540;2023-09-12T12:15:47;2.53;;;2.35;;
16189;SDS011;41754;51.498;7.540;2023-09-12T12:18:15;7.50;;;3.30;;
16189;SDS011;41754;51.498;7.540;2023-09-12T12:20:43;35.13;;;6.95;;
16189;SDS011;41754;51.498;7.540;2023-09-12T12:23:11;7.25;;;2.95;;
16189;SDS011;41754;51.498;7.540;2023-09-12T12:25:40;26.92;;;5.53;;
16189;SDS011;41754;51.498;7.540;2023-09-12T12:28:09;12.30;;;3.97;;
16189;SDS011;41754;51.498;7.540;2023-09-12T12:30:37;3.88;;;3.17;;
16189;SDS011;41754;51.498;7.540;2023-09-12T12:33:06;4.97;;;2.78;;
16189;SDS011;41754;51.498;7.540;2023-09-12T12:35:59;3.58;;;2.53;;
16189;SDS011;41754;51.498;7.540;2023-09-12T12:38:28;2.75;;;2.50;;
16189;SDS011;41754;51.498;7.540;2023-09-12T12:41:00;2.40;;;2.20;;
16189;SDS011;41754;51.498;7.540;2023-09-12T12:43:29;2.40;;;2.20;;
16189;SDS011;41754;51.498;7.540;2023-09-12T12:45:57;2.60;;;2.05;;
16189;SDS011;41754;51.498;7.540;2023-09-12T12:48:29;2.20;;;2.10;;
16189;SDS011;41754;51.498;7.540;2023-09-12T12:50:58;2.30;;;2.20;;
16189;SDS011;41754;51.498;7.540;2023-09-12T12:53:36;3.08;;;2.50;;
16189;SDS011;41754;51.498;7.540;2023-09-12T12:56:18;2.45;;;2.35;;
16189;SDS011;41754;51.498;7.540;2023-09-12T12:58:50;3.20;;;3.00;;
16189;SDS011;41754;51.498;7.540;2023-09-12T13:01:20;2.65;;;2.45;;
16189;SDS011;41754;51.498;7.540;2023-09-12T13:03:49;3.58;;;2.50;;
16189;SDS011;41754;51.498;7.540;2023-09-12T13:06:17;3.15;;;2.50;;
16189;SDS011;41754;51.498;7.540;2023-09-12T13:08:46;3.60;;;3.10;;
16189;SDS011;41754;51.498;7.540;2023-09-12T13:11:15;3.13;;;2.83;;
16189;SDS011;41754;51.498;7.540;2023-09-12T13:13:44;2.60;;;2.40;;
16189;SDS011;41754;51.498;7.540;2023-09-12T13:16:15;3.22;;;2.92;;
16189;SDS011;41754;51.498;7.540;2023-09-12T13:18:44;3.63;;;3.00;;
16189;SDS011;41754;51.498;7.540;2023-09-12T13:21:12;3.30;;;3.00;;
16189;SDS011;41754;51.498;7.540;2023-09-12T13:23:40;3.05;;;2.75;;
16189;SDS011;41754;51.498;7.540;2023-09-12T13:26:08;3.75;;;3.10;;
16189;SDS011;41754;51.498;7.540;2023-09-12T13:28:37;5.15;;;3.28;;
16189;SDS011;41754;51.498;7.540;2023-09-12T13:31:05;3.13;;;2.92;;
16189;SDS011;41754;51.498;7.540;2023-09-12T13:33:34;3.60;;;3.20;;
16189;SDS011;41754;51.498;7.540;2023-09-12T13:36:02;3.30;;;3.10;;
16189;SDS011;41754;51.498;7.540;2023-09-12T13:38:30;4.35;;;3.05;;
16189;SDS011;41754;51.498;7.540;2023-09-12T13:40:58;3.42;;;3.03;;
16189;SDS011;41754;51.498;7.540;2023-09-12T13:43:26;3.33;;;3.03;;
16189;SDS011;41754;51.498;7.540;2023-09-12T13:45:54;2.92;;;2.72;;
16189;SDS011;41754;51.498;7.540;2023-09-12T13:48:22;2.72;;;2.53;;
16189;SDS011;41754;51.498;7.540;2023-09-12T13:50:53;2.83;;;2.58;;
16189;SDS011;41754;51.498;7.540;2023-09-12T13:53:21;2.78;;;2.58;;
16189;SDS011;41754;51.498;7.540;2023-09-12T13:55:49;2.83;;;2.60;;
16189;SDS011;41754;51.498;7.540;2023-09-12T13:58:17;4.68;;;3.45;;
16189;SDS011;41754;51.498;7.540;2023-09-12T14:00:45;2.80;;;2.60;;
16189;SDS011;41754;51.498;7.540;2023-09-12T14:03:13;4.32;;;2.47;;
16189;SDS011;41754;51.498;7.540;2023-09-12T14:05:41;2.92;;;2.72;;
16189;SDS011;41754;51.498;7.540;2023-09-12T14:08:11;2.95;;;2.75;;
16189;SDS011;41754;51.498;7.540;2023-09-12T14:10:39;3.00;;;2.70;;
16189;SDS011;41754;51.498;7.540;2023-09-12T14:13:07;2.58;;;2.40;;
16189;SDS011;41754;51.498;7.540;2023-09-12T14:15:47;2.95;;;2.80;;
16189;SDS011;41754;51.498;7.540;2023-09-12T14:18:17;3.03;;;2.60;;
16189;SDS011;41754;51.498;7.540;2023-09-12T14:20:47;4.05;;;3.30;;
16189;SDS011;41754;51.498;7.540;2023-09-12T14:23:20;3.17;;;2.95;;
16189;SDS011;41754;51.498;7.540;2023-09-12T14:25:48;3.00;;;2.75;;
16189;SDS011;41754;51.498;7.540;2023-09-12T14:28:16;2.85;;;2.65;;
16189;SDS011;41754;51.498;7.540;2023-09-12T14:30:44;3.00;;;2.55;;
16189;SDS011;41754;51.498;7.540;2023-09-12T14:33:13;3.17;;;2.90;;
16189;SDS011;41754;51.498;7.540;2023-09-12T14:35:44;3.42;;;3.10;;
16189;SDS011;41754;51.498;7.540;2023-09-12T14:38:12;3.55;;;3.25;;
16189;SDS011;41754;51.498;7.540;2023-09-12T14:40:41;3.33;;;3.10;;
16189;SDS011;41754;51.498;7.540;2023-09-12T14:43:11;3.55;;;3.25;;
16189;SDS011;41754;51.498;7.540;2023-09-12T14:45:39;3.75;;;3.47;;
16189;SDS011;41754;51.498;7.540;2023-09-12T14:48:08;4.03;;;3.67;;
16189;SDS011;41754;51.498;7.540;2023-09-12T14:50:36;4.75;;;3.45;;
16189;SDS011;41754;51.498;7.540;2023-09-12T14:53:10;3.78;;;3.47;;
16189;SDS011;41754;51.498;7.540;2023-09-12T14:55:39;4.95;;;3.75;;
16189;SDS011;41754;51.498;7.540;2023-09-12T14:58:08;4.10;;;3.70;;